createdAt,value
2022-11-05T00:01:50.774Z,98610.78
2022-11-05T00:04:37.022Z,98616.69
2022-11-05T00:07:29.740Z,98613.22
2022-11-05T00:10:04.321Z,98606.66
2022-11-05T00:12:49.926Z,98619.66
2022-11-05T00:15:35.653Z,98625.19
2022-11-05T00:18:03.731Z,98606.34
2022-11-05T00:20:31.957Z,98618.41
2022-11-05T00:23:20.596Z,98573.25
2022-11-05T00:25:57.966Z,98627.84
2022-11-05T00:28:26.442Z,98626.25
2022-11-05T00:30:54.840Z,98635.13
2022-11-05T00:33:22.972Z,98567.75
2022-11-05T00:35:51.394Z,98549.66
2022-11-05T00:38:19.747Z,98576.41
2022-11-05T00:40:48.092Z,98581.50
2022-11-05T00:43:35.340Z,98595.56
2022-11-05T00:46:03.403Z,98592.41
2022-11-05T00:48:48.583Z,98591.78
2022-11-05T00:51:16.710Z,98589.84
2022-11-05T00:53:48.030Z,98615.25
2022-11-05T00:56:16.138Z,98638.44
2022-11-05T00:58:45.725Z,98616.22
2022-11-05T01:01:13.937Z,98658.22
2022-11-05T01:03:45.145Z,98661.09
2022-11-05T01:06:18.318Z,98605.84
2022-11-05T01:08:47.782Z,98605.31
2022-11-05T01:11:33.367Z,98571.47
2022-11-05T01:14:05.298Z,98581.06
2022-11-05T01:16:33.620Z,98621.38
2022-11-05T01:19:02.468Z,98605.22
2022-11-05T01:21:33.319Z,98629.66
2022-11-05T01:24:02.000Z,98644.78
2022-11-05T01:26:30.792Z,98601.69
2022-11-05T01:29:01.113Z,98680.88
2022-11-05T01:31:30.840Z,98634.81
2022-11-05T01:34:05.221Z,98578.97
2022-11-05T01:36:33.472Z,98610.19
2022-11-05T01:39:02.925Z,98679.84
2022-11-05T01:41:31.095Z,98671.91
2022-11-05T01:44:00.884Z,98586.69
2022-11-05T01:46:35.041Z,98630.28
2022-11-05T01:49:10.454Z,98610.38
2022-11-05T01:51:39.000Z,98616.00
2022-11-05T01:54:11.515Z,98591.34
2022-11-05T01:56:43.989Z,98646.50
2022-11-05T01:59:16.655Z,98636.31
2022-11-05T02:01:46.643Z,98606.47
2022-11-05T02:04:20.937Z,98609.97
2022-11-05T02:06:49.155Z,98618.66
2022-11-05T02:09:23.718Z,98620.31
2022-11-05T02:11:53.089Z,98643.41
2022-11-05T02:14:21.830Z,98680.88
2022-11-05T02:16:59.052Z,98654.84
2022-11-05T02:19:52.724Z,98633.38
2022-11-05T02:22:43.255Z,98630.16
2022-11-05T02:25:32.892Z,98609.75
2022-11-05T02:28:24.398Z,98582.84
2022-11-05T02:30:58.376Z,98673.88
2022-11-05T02:33:37.573Z,98650.09
2022-11-05T02:36:20.492Z,98636.75
2022-11-05T02:38:58.693Z,98665.22
2022-11-05T02:41:35.625Z,98630.59
2022-11-05T02:44:20.385Z,98666.06
2022-11-05T02:46:58.517Z,98715.06
2022-11-05T02:49:37.003Z,98708.63
2022-11-05T02:52:07.954Z,98660.97
2022-11-05T02:54:45.756Z,98661.19
2022-11-05T02:57:14.076Z,98660.53
2022-11-05T02:59:42.286Z,98629.22
2022-11-05T03:02:12.261Z,98719.13
2022-11-05T03:04:40.721Z,98693.78
2022-11-05T03:07:34.615Z,98687.44
2022-11-05T03:10:28.231Z,98733.41
2022-11-05T03:13:10.706Z,98681.72
2022-11-05T03:15:53.691Z,98684.66
2022-11-05T03:18:31.844Z,98723.31
2022-11-05T03:21:06.959Z,98650.25
2022-11-05T03:23:39.853Z,98659.00
2022-11-05T03:26:17.650Z,98672.59
2022-11-05T03:28:50.593Z,98753.94
2022-11-05T03:31:20.114Z,98698.72
2022-11-05T03:33:52.073Z,98697.16
2022-11-05T03:36:23.545Z,98755.75
2022-11-05T03:38:55.752Z,98748.66
2022-11-05T03:41:26.445Z,98651.06
2022-11-05T03:44:00.212Z,98723.50
2022-11-05T03:46:33.356Z,98713.91
2022-11-05T03:49:07.217Z,98657.94
2022-11-05T03:51:42.616Z,98757.63
2022-11-05T03:54:11.985Z,98694.81
2022-11-05T03:56:46.093Z,98696.53
2022-11-05T03:59:15.546Z,98727.88
2022-11-05T04:01:43.921Z,98693.44
2022-11-05T04:04:13.709Z,98736.13
2022-11-05T04:06:59.520Z,98689.06
2022-11-05T04:09:45.603Z,98691.59
2022-11-05T04:12:31.142Z,98750.28
2022-11-05T04:14:59.854Z,98704.06
2022-11-05T04:17:27.163Z,98734.69
2022-11-05T04:20:14.161Z,98734.63
2022-11-05T04:22:59.408Z,98704.94
2022-11-05T04:25:27.666Z,98769.25
2022-11-05T04:28:00.585Z,98724.13
2022-11-05T04:30:28.137Z,98694.50
2022-11-05T04:33:01.834Z,98743.38
2022-11-05T04:35:33.006Z,98703.22
2022-11-05T04:38:01.538Z,98718.38
2022-11-05T04:40:30.405Z,98775.72
2022-11-05T04:42:59.031Z,98807.09
2022-11-05T04:45:29.924Z,98721.66
2022-11-05T04:47:58.165Z,98757.28
2022-11-05T04:50:26.340Z,98767.19
2022-11-05T04:52:56.080Z,98758.22
2022-11-05T04:55:24.540Z,98784.06
2022-11-05T04:57:54.011Z,98733.34
2022-11-05T05:00:23.928Z,98751.25
2022-11-05T05:02:58.351Z,98803.69
2022-11-05T05:05:26.619Z,98830.84
2022-11-05T05:07:56.259Z,98778.91
2022-11-05T05:10:24.388Z,98728.00
2022-11-05T05:12:52.509Z,98825.94
2022-11-05T05:15:21.392Z,98763.13
2022-11-05T05:17:52.025Z,98738.84
2022-11-05T05:20:37.653Z,98807.56
2022-11-05T05:23:07.285Z,98785.28
2022-11-05T05:25:35.447Z,98759.13
2022-11-05T05:28:03.571Z,98821.25
2022-11-05T05:30:38.027Z,98843.75
2022-11-05T05:33:06.372Z,98776.28
2022-11-05T05:35:35.626Z,98775.75
2022-11-05T05:38:03.829Z,98833.25
2022-11-05T05:40:33.495Z,98813.81
2022-11-05T05:43:01.759Z,98757.00
2022-11-05T05:45:30.048Z,98789.94
2022-11-05T05:47:58.263Z,98845.50
2022-11-05T05:50:26.582Z,98806.59
2022-11-05T05:52:54.947Z,98784.03
2022-11-05T05:55:23.197Z,98837.56
2022-11-05T05:57:52.797Z,98886.13
2022-11-05T06:00:21.106Z,98784.22
2022-11-05T06:02:49.551Z,98799.16
2022-11-05T06:05:18.951Z,98827.06
2022-11-05T06:07:47.216Z,98800.53
2022-11-05T06:10:15.552Z,98793.78
2022-11-05T06:12:43.895Z,98804.91
2022-11-05T06:15:13.724Z,98863.00
2022-11-05T06:20:29.003Z,98846.63
2022-11-05T06:26:59.978Z,98824.16
2022-11-05T06:33:24.282Z,98869.41
2022-11-05T06:35:52.612Z,98912.91
2022-11-05T06:38:21.229Z,98934.47
2022-11-05T06:40:49.667Z,98907.50
2022-11-05T06:43:18.005Z,98888.63
2022-11-05T06:45:46.202Z,98910.88
2022-11-05T06:48:16.235Z,98863.75
2022-11-05T06:50:47.094Z,98910.63
2022-11-05T06:53:15.798Z,98965.47
2022-11-05T06:55:45.072Z,98870.09
2022-11-05T06:58:16.291Z,98915.47
2022-11-05T07:00:44.566Z,98941.41
2022-11-05T07:03:13.961Z,98905.16
2022-11-05T07:05:48.231Z,98945.56
2022-11-05T07:08:20.313Z,98891.88
2022-11-05T07:10:53.262Z,98944.69
2022-11-05T07:13:22.792Z,98933.97
2022-11-05T07:15:50.966Z,98954.72
2022-11-05T07:18:19.254Z,98926.03
2022-11-05T07:20:49.354Z,98914.03
2022-11-05T07:23:17.828Z,98975.28
2022-11-05T07:25:46.169Z,98959.03
2022-11-05T07:28:15.255Z,98958.38
2022-11-05T07:30:43.561Z,98984.63
2022-11-05T07:33:12.031Z,98963.97
2022-11-05T07:35:40.502Z,99028.97
2022-11-05T07:38:10.074Z,98971.81
2022-11-05T07:40:38.616Z,98933.97
2022-11-05T07:43:06.684Z,99031.47
2022-11-05T07:45:34.851Z,99033.69
2022-11-05T07:48:04.466Z,99038.97
2022-11-05T07:50:34.250Z,99044.94
2022-11-05T07:53:03.227Z,99050.50
2022-11-05T07:55:32.713Z,99005.56
2022-11-05T07:58:03.853Z,99044.91
2022-11-05T08:00:32.352Z,99010.88
2022-11-05T08:03:07.278Z,99060.63
2022-11-05T08:05:39.452Z,98980.53
2022-11-05T08:08:08.911Z,99069.34
2022-11-05T08:10:39.182Z,99015.44
2022-11-05T08:13:08.517Z,98981.34
2022-11-05T08:15:40.772Z,99012.03
2022-11-05T08:20:45.651Z,98984.47
2022-11-05T08:23:14.643Z,99038.34
2022-11-05T08:25:44.499Z,99022.41
2022-11-05T08:28:13.973Z,99084.53
2022-11-05T08:30:42.720Z,99078.50
2022-11-05T08:33:13.162Z,99084.00
2022-11-05T08:35:47.250Z,99060.63
2022-11-05T08:38:15.871Z,99099.00
2022-11-05T08:40:46.978Z,99049.31
2022-11-05T08:43:15.698Z,99030.75
2022-11-05T08:45:43.822Z,99094.88
2022-11-05T08:48:15.162Z,99057.25
2022-11-05T08:50:43.715Z,99055.00
2022-11-05T08:53:13.043Z,99104.53
2022-11-05T08:55:41.537Z,99014.63
2022-11-05T08:58:12.791Z,99105.34
2022-11-05T09:00:41.259Z,99060.34
2022-11-05T09:03:10.941Z,99047.72
2022-11-05T09:05:40.852Z,99119.19
2022-11-05T09:08:10.245Z,99051.22
2022-11-05T09:10:38.371Z,99031.06
2022-11-05T09:13:06.878Z,99088.91
2022-11-05T09:15:36.787Z,99122.66
2022-11-05T09:18:09.436Z,99132.66
2022-11-05T09:20:41.170Z,99124.91
2022-11-05T09:23:12.515Z,99126.94
2022-11-05T09:25:40.856Z,99124.06
2022-11-05T09:28:14.640Z,99126.19
2022-11-05T09:30:47.884Z,99130.31
2022-11-05T09:33:17.229Z,99137.13
2022-11-05T09:35:45.692Z,99129.59
2022-11-05T09:38:14.387Z,99125.00
2022-11-05T09:40:48.202Z,99135.63
2022-11-05T09:43:18.913Z,99133.50
2022-11-05T09:45:51.015Z,99129.75
2022-11-05T09:48:24.122Z,99057.91
2022-11-05T09:50:54.782Z,99122.75
2022-11-05T09:53:25.206Z,99136.66
2022-11-05T09:55:56.124Z,99131.47
2022-11-05T09:58:34.375Z,99138.75
2022-11-05T10:01:05.085Z,99144.59
2022-11-05T10:03:35.618Z,99153.44
2022-11-05T10:06:10.665Z,99139.81
2022-11-05T10:08:43.599Z,99156.78
2022-11-05T10:11:17.296Z,99157.75
2022-11-05T10:13:48.909Z,99158.50
2022-11-05T10:16:25.284Z,99169.38
2022-11-05T10:18:57.338Z,99166.59
2022-11-05T10:21:51.500Z,99173.81
2022-11-05T10:24:16.535Z,99178.13
2022-11-05T10:26:47.844Z,99176.03
2022-11-05T10:29:23.331Z,99179.00
2022-11-05T10:31:55.256Z,99167.41
2022-11-05T10:34:27.662Z,99164.44
2022-11-05T10:36:55.794Z,99183.72
2022-11-05T10:39:24.673Z,99172.66
2022-11-05T10:42:19.076Z,99182.56
2022-11-05T10:44:51.835Z,99185.53
2022-11-05T10:47:39.488Z,99180.00
2022-11-05T10:50:14.299Z,99186.16
2022-11-05T10:52:56.146Z,99188.22
2022-11-05T10:55:29.602Z,99182.81
2022-11-05T10:58:09.966Z,99190.72
2022-11-05T11:00:39.796Z,99187.63
2022-11-05T11:03:37.305Z,99174.78
2022-11-05T11:06:07.980Z,99177.91
2022-11-05T11:08:37.990Z,99168.44
2022-11-05T11:11:09.483Z,99163.75
2022-11-05T11:13:52.711Z,99110.09
2022-11-05T11:16:23.791Z,99107.16
2022-11-05T11:18:57.050Z,99097.63
2022-11-05T11:21:26.392Z,99089.00
2022-11-05T11:23:59.177Z,99093.94
2022-11-05T11:26:30.272Z,99100.09
2022-11-05T11:29:01.816Z,99091.66
2022-11-05T11:31:32.355Z,99101.63
2022-11-05T11:34:05.221Z,99126.16
2022-11-05T11:36:36.616Z,99159.69
2022-11-05T11:39:07.294Z,99093.22
2022-11-05T11:41:38.981Z,99168.06
2022-11-05T11:44:12.679Z,99160.81
2022-11-05T11:46:41.157Z,99120.97
2022-11-05T11:49:32.589Z,99099.75
2022-11-05T11:52:04.532Z,99128.72
2022-11-05T11:58:19.714Z,99166.88
2022-11-05T12:00:53.656Z,99189.94
2022-11-05T12:03:27.650Z,99134.59
2022-11-05T12:06:06.723Z,99139.72
2022-11-05T12:11:44.414Z,99184.75
2022-11-05T12:14:25.091Z,99174.44
2022-11-05T12:17:07.413Z,99182.19
2022-11-05T12:19:51.830Z,99181.44
2022-11-05T12:22:31.548Z,99105.59
2022-11-05T12:25:17.645Z,99128.16
2022-11-05T12:28:01.813Z,99117.75
2022-11-05T12:30:38.424Z,99135.69
2022-11-05T12:33:21.357Z,99172.47
2022-11-05T12:45:00.881Z,99125.84
2022-11-05T12:47:43.241Z,99077.84
2022-11-05T12:50:35.838Z,99134.03
2022-11-05T13:05:07.144Z,99132.59
2022-11-05T13:07:40.604Z,99131.22
2022-11-05T13:10:25.168Z,99126.09
2022-11-05T13:13:03.350Z,99143.84
2022-11-05T13:15:37.269Z,99153.00
2022-11-05T13:18:12.040Z,99150.56
2022-11-05T13:20:43.590Z,99146.09
2022-11-05T13:23:18.979Z,99089.97
2022-11-05T13:25:53.816Z,99079.94
2022-11-05T13:28:32.884Z,99137.31
2022-11-05T13:31:03.828Z,99146.50
2022-11-05T13:33:37.656Z,99055.03
2022-11-05T13:36:31.897Z,99157.34
2022-11-05T13:39:09.561Z,99098.38
2022-11-05T13:41:53.249Z,99079.84
2022-11-05T13:44:39.938Z,99093.22
2022-11-05T13:47:37.323Z,99156.91
2022-11-05T13:50:33.464Z,99108.09
2022-11-05T13:53:34.110Z,99098.84
2022-11-05T13:56:20.145Z,99130.88
2022-11-05T13:59:00.065Z,99140.00
2022-11-05T14:01:43.490Z,99142.34
2022-11-05T14:04:22.817Z,99095.22
2022-11-05T14:06:52.530Z,99137.34
2022-11-05T14:09:23.279Z,99170.50
2022-11-05T14:11:54.833Z,99144.63
2022-11-05T14:14:26.089Z,99160.47
2022-11-05T14:16:56.389Z,99164.44
2022-11-05T14:19:33.878Z,99171.97
2022-11-05T14:22:30.235Z,99173.03
2022-11-05T14:24:58.942Z,99176.53
2022-11-05T14:27:54.073Z,99165.06
2022-11-05T14:30:41.577Z,99162.09
2022-11-05T14:33:32.854Z,99165.59
2022-11-05T14:36:37.093Z,99166.13
2022-11-05T14:39:23.341Z,99159.44
2022-11-05T14:41:59.458Z,99148.56
2022-11-05T14:44:30.643Z,99166.94
2022-11-05T14:47:02.048Z,99161.34
2022-11-05T14:49:35.110Z,99146.66
2022-11-05T14:52:11.012Z,99111.22
2022-11-05T14:54:48.117Z,99161.63
2022-11-05T14:57:39.474Z,99171.66
2022-11-05T15:00:36.937Z,99153.03
2022-11-05T15:03:27.642Z,99174.09
2022-11-05T15:06:21.714Z,99180.44
2022-11-05T15:09:17.949Z,99183.66
2022-11-05T15:12:02.698Z,99190.88
2022-11-05T15:14:35.134Z,99188.00
2022-11-05T15:17:15.762Z,99172.88
2022-11-05T15:19:44.435Z,99197.66
2022-11-05T15:22:34.984Z,99162.88
2022-11-05T15:25:05.196Z,99135.47
2022-11-05T15:28:05.192Z,99180.00
2022-11-05T15:30:33.716Z,99155.16
2022-11-05T15:33:19.774Z,99177.75
2022-11-05T15:35:48.113Z,99171.28
2022-11-05T15:38:34.566Z,99162.81
2022-11-05T15:41:05.430Z,99160.63
2022-11-05T15:43:37.198Z,99163.72
2022-11-05T15:46:15.041Z,99163.94
2022-11-05T15:48:47.391Z,99163.06
2022-11-05T15:51:15.494Z,99147.53
2022-11-05T15:56:51.250Z,99167.28
2022-11-05T15:59:22.745Z,99168.75
2022-11-05T16:01:56.535Z,99157.59
2022-11-05T16:04:27.282Z,99173.09
2022-11-05T16:06:58.607Z,99181.25
2022-11-05T16:09:28.930Z,99175.09
2022-11-05T16:12:24.273Z,99182.63
2022-11-05T16:15:04.051Z,99179.88
2022-11-05T16:17:34.860Z,99183.41
2022-11-05T16:20:03.237Z,99135.75
2022-11-05T16:22:46.254Z,99149.13
2022-11-05T16:25:28.311Z,99134.09
2022-11-05T16:27:56.723Z,99177.13
2022-11-05T16:30:26.640Z,99151.31
2022-11-05T16:32:55.256Z,99151.22
2022-11-05T16:35:25.124Z,99194.34
2022-11-05T16:37:53.656Z,99196.25
2022-11-05T16:40:23.950Z,99128.44
2022-11-05T16:42:52.988Z,99195.47
2022-11-05T16:45:22.991Z,99125.25
2022-11-05T16:47:52.967Z,99194.44
2022-11-05T16:50:25.414Z,99204.84
2022-11-05T16:52:53.847Z,99203.72
2022-11-05T16:55:22.064Z,99190.50
2022-11-05T16:57:53.611Z,99205.78
2022-11-05T17:00:23.288Z,99208.69
2022-11-05T17:12:13.192Z,99225.53
2022-11-05T17:14:51.052Z,99180.69
2022-11-05T17:18:00.633Z,99177.38
2022-11-05T17:20:39.826Z,99158.31
2022-11-05T17:23:10.438Z,99188.41
2022-11-05T17:25:39.467Z,99210.59
2022-11-05T17:28:10.550Z,99224.63
2022-11-05T17:30:41.406Z,99220.91
2022-11-05T17:33:10.990Z,99221.19
2022-11-05T17:35:40.416Z,99199.91
2022-11-05T17:38:10.456Z,99230.28
2022-11-05T17:40:39.795Z,99225.44
2022-11-05T17:43:10.537Z,99217.50
2022-11-05T17:45:43.103Z,99241.03
2022-11-05T17:48:11.687Z,99224.13
2022-11-05T17:50:43.312Z,99203.94
2022-11-05T17:53:11.972Z,99236.22
2022-11-05T17:55:41.584Z,99220.31
2022-11-05T17:58:11.720Z,99224.56
2022-11-05T18:00:40.723Z,99220.22
2022-11-05T18:03:09.134Z,99232.50
2022-11-05T18:05:37.999Z,99236.75
2022-11-05T18:08:07.168Z,99242.06
2022-11-05T18:10:37.864Z,99246.31
2022-11-05T18:13:05.959Z,99239.47
2022-11-05T18:15:38.081Z,99225.94
2022-11-05T18:18:06.155Z,99243.75
2022-11-05T18:20:34.287Z,99234.56
2022-11-05T18:23:02.452Z,99248.03
2022-11-05T18:25:30.565Z,99172.50
2022-11-05T18:27:58.590Z,99251.59
2022-11-05T18:30:26.573Z,99180.19
2022-11-05T18:32:56.404Z,99245.91
2022-11-05T18:35:24.413Z,99247.09
2022-11-05T18:37:52.963Z,99200.22
2022-11-05T18:40:21.372Z,99250.00
2022-11-05T18:42:49.882Z,99247.59
2022-11-05T18:45:17.944Z,99229.69
2022-11-05T18:47:45.981Z,99240.72
2022-11-05T18:50:15.722Z,99251.03
2022-11-05T18:52:43.784Z,99189.13
2022-11-05T18:55:11.902Z,99245.66
2022-11-05T18:57:39.946Z,99250.84
2022-11-05T19:00:09.426Z,99234.47
2022-11-05T19:02:37.616Z,99244.44
2022-11-05T19:05:28.051Z,99183.19
2022-11-05T19:07:55.739Z,99155.94
2022-11-05T19:10:23.897Z,99231.91
2022-11-05T19:12:52.169Z,99245.13
2022-11-05T19:15:20.512Z,99243.84
2022-11-05T19:17:48.590Z,99258.84
2022-11-05T19:20:37.597Z,99175.09
2022-11-05T19:23:07.605Z,99199.69
2022-11-05T19:25:38.095Z,99154.44
2022-11-05T19:28:06.586Z,99151.97
2022-11-05T19:31:46.238Z,99248.28
2022-11-05T19:35:35.661Z,99242.53
2022-11-05T19:38:08.165Z,99251.66
2022-11-05T19:40:38.106Z,99204.03
2022-11-05T19:43:06.215Z,99186.09
2022-11-05T19:45:49.561Z,99252.91
2022-11-05T19:48:19.758Z,99247.78
2022-11-05T19:50:48.418Z,99252.41
2022-11-05T19:53:18.197Z,99242.53
2022-11-05T19:55:46.266Z,99176.16
2022-11-05T19:58:14.725Z,99212.53
2022-11-05T20:00:43.226Z,99253.16
2022-11-05T20:03:12.657Z,99254.41
2022-11-05T20:05:40.974Z,99192.47
2022-11-05T20:08:09.277Z,99180.34
2022-11-05T20:10:39.715Z,99262.41
2022-11-05T20:13:07.814Z,99250.16
2022-11-05T20:15:40.686Z,99248.69
2022-11-05T20:18:23.032Z,99258.78
2022-11-05T20:21:04.920Z,99249.16
2022-11-05T20:23:36.415Z,99236.94
2022-11-05T20:26:09.709Z,99256.53
2022-11-05T20:28:39.544Z,99261.81
2022-11-05T20:31:09.083Z,99257.84
2022-11-05T20:33:39.411Z,99252.66
2022-11-05T20:36:10.326Z,99259.78
2022-11-05T20:38:39.195Z,99254.84
2022-11-05T20:41:10.717Z,99183.31
2022-11-05T20:43:40.976Z,99186.19
2022-11-05T20:46:10.148Z,99166.69
2022-11-05T20:48:40.794Z,99144.09
2022-11-05T20:51:15.251Z,99223.94
2022-11-05T20:53:44.850Z,99223.31
2022-11-05T20:56:20.102Z,99174.16
2022-11-05T20:58:48.915Z,99211.53
2022-11-05T21:01:18.445Z,99215.97
2022-11-05T21:03:48.426Z,99209.28
2022-11-05T21:06:17.617Z,99170.09
2022-11-05T21:08:49.358Z,99253.03
2022-11-05T21:11:19.354Z,99265.38
2022-11-05T21:13:48.239Z,99248.16
2022-11-05T21:16:20.516Z,99255.56
2022-11-05T21:18:49.075Z,99269.69
2022-11-05T21:21:24.683Z,99241.13
2022-11-05T21:24:01.419Z,99274.91
2022-11-05T21:26:33.856Z,99287.19
2022-11-05T21:29:03.197Z,99258.09
2022-11-05T21:31:32.004Z,99281.81
2022-11-05T21:34:00.120Z,99285.22
2022-11-05T21:36:55.225Z,99249.25
2022-11-05T21:39:24.483Z,99196.28
2022-11-05T21:41:54.572Z,99270.25
2022-11-05T21:48:23.235Z,99286.25
2022-11-05T21:56:37.439Z,99244.56
2022-11-05T21:59:26.530Z,99197.09
2022-11-05T22:02:01.604Z,99274.88
2022-11-05T22:04:30.554Z,99248.47
2022-11-05T22:06:59.003Z,99253.31
2022-11-05T22:09:27.782Z,99277.59
2022-11-05T22:11:56.339Z,99255.09
2022-11-05T22:14:25.986Z,99261.84
2022-11-05T22:16:55.780Z,99233.16
2022-11-05T22:19:24.649Z,99256.88
2022-11-05T22:21:53.269Z,99263.69
2022-11-05T22:24:24.320Z,99243.00
2022-11-05T22:26:53.628Z,99250.81
2022-11-05T22:29:21.705Z,99263.41
2022-11-05T22:31:51.140Z,99243.41
2022-11-05T22:34:19.270Z,99265.25
2022-11-05T22:36:47.432Z,99260.72
2022-11-05T22:39:16.056Z,99255.38
2022-11-05T22:41:44.708Z,99258.16
2022-11-05T22:44:14.246Z,99247.75
2022-11-05T22:46:42.490Z,99235.59
2022-11-05T22:49:12.001Z,99235.81
2022-11-05T22:51:40.704Z,99233.31
2022-11-05T22:54:09.255Z,99230.81
2022-11-05T22:56:40.041Z,99226.03
2022-11-05T22:59:12.117Z,99216.09
2022-11-05T23:01:40.481Z,99209.19
2022-11-05T23:04:08.636Z,99219.22
2022-11-05T23:06:55.777Z,99217.50
2022-11-05T23:09:44.948Z,99218.34
2022-11-05T23:12:22.331Z,99215.59
2022-11-05T23:14:50.476Z,99212.19
2022-11-05T23:17:36.029Z,99211.81
2022-11-05T23:20:24.421Z,99206.28
2022-11-05T23:23:11.102Z,99182.91
2022-11-05T23:25:39.117Z,99202.97
2022-11-05T23:28:10.105Z,99220.72
2022-11-05T23:31:00.280Z,99205.97
2022-11-05T23:33:28.009Z,99238.78
2022-11-05T23:36:13.519Z,99227.25
2022-11-05T23:38:42.996Z,99246.78
2022-11-05T23:41:28.490Z,99233.78
2022-11-05T23:44:13.627Z,99225.09
2022-11-05T23:46:59.317Z,99225.69
2022-11-05T23:49:27.742Z,99183.56
2022-11-05T23:51:55.706Z,99179.31
2022-11-05T23:54:25.224Z,99144.78
2022-11-05T23:56:53.262Z,99178.31
2022-11-05T23:59:21.436Z,99167.38
